»·PEaware :: N450HB KTOA-KVNY

N450HB :: KTOA-KVNY

FLIGHT INFORMATION

Flight Status: Arrived
Operator: Privately registered:
United States
More flights under this callsign
Pilot: Mark P. (13279)
Aircraft: CESSNA T210 TURBO CENTURION
(T210)
More flights by this aircraft type
Origin: KTOA Zamperini
United States
Destination: KVNY Van Nuys
United States
More flights between these airports :: More routes between these airports
Route: +LAX170 LIMBO V64 SMO125 SMO SMO317 CANOG
File this flight plan on PilotEdge
Remarks: HOIFR1
Altitude:
(Current/Filed)
4,000ft
Speed:
(Current/Filed)
165kts
Departed: 11-Jan-18 08:25 PM
Arrived: 11-Jan-18 09:26 PM
Distance/Time
Traveled:
25nm/1:01
Distance/Time
To Go:
Arrived

Flight Plot

Page will automatically refresh every two minutes.

Flight plan parsing failed; only flown route is shown


Map Options




Map Legend


Flown Route
Filed Route
Departure Airport
Arrival Airport
Navaid (VOR, NDB)
Fix

Horizontal Profiles

Position Reports

Time Latitude Longitude Heading Altitude Ground
Speed
11-Jan-18 19:59 33.807495 -118.347697 89 107ft 0kts
11-Jan-18 20:00 33.807495 -118.347697 89 107ft 0kts
11-Jan-18 20:01 33.807495 -118.347697 89 107ft 0kts
11-Jan-18 20:02 33.807495 -118.347697 89 107ft 0kts
11-Jan-18 20:03 33.807495 -118.347697 89 107ft 0kts
11-Jan-18 20:04 33.807495 -118.347697 89 107ft 0kts
11-Jan-18 20:05 33.807495 -118.347697 89 107ft 0kts
11-Jan-18 20:06 33.807495 -118.347697 89 107ft 0kts
11-Jan-18 20:07 33.807495 -118.347697 89 107ft 0kts
11-Jan-18 20:08 33.807495 -118.347697 89 107ft 0kts
11-Jan-18 20:09 33.807495 -118.347697 89 107ft 0kts
11-Jan-18 20:10 33.807495 -118.347697 89 107ft 0kts
11-Jan-18 20:11 33.807495 -118.347697 89 107ft 0kts
11-Jan-18 20:12 33.807495 -118.347697 89 107ft 0kts
11-Jan-18 20:13 33.807495 -118.347697 89 107ft 0kts
11-Jan-18 20:14 33.807495 -118.347697 89 107ft 0kts
11-Jan-18 20:15 33.807495 -118.347697 89 107ft 0kts
11-Jan-18 20:16 33.807495 -118.347697 89 107ft 0kts
11-Jan-18 20:17 33.807495 -118.347697 89 107ft 0kts
11-Jan-18 20:18 33.807495 -118.347697 89 107ft 0kts
11-Jan-18 20:19 33.807495 -118.347697 89 107ft 0kts
11-Jan-18 20:20 33.807495 -118.347697 89 107ft 0kts
11-Jan-18 20:21 33.806246 -118.347521 180 107ft 8kts
11-Jan-18 20:22 33.805731 -118.346153 128 107ft 9kts
11-Jan-18 20:23 33.803621 -118.342959 128 107ft 14kts
11-Jan-18 20:24 33.800877 -118.338821 128 107ft 16kts
11-Jan-18 20:25 33.798000 -118.334449 109 107ft 6kts
11-Jan-18 20:26 33.798901 -118.333108 335 107ft 0kts
11-Jan-18 20:27 33.798901 -118.333108 335 107ft 0kts
11-Jan-18 20:28 33.798901 -118.333108 335 107ft 0kts
11-Jan-18 20:29 33.798901 -118.333108 335 107ft 0kts
11-Jan-18 20:30 33.799954 -118.333520 307 107ft 21kts
11-Jan-18 20:31 33.812247 -118.351877 307 513ft 97kts
11-Jan-18 20:32 33.830602 -118.378474 307 1004ft 105kts
11-Jan-18 20:33 33.849477 -118.405790 307 1583ft 107kts
11-Jan-18 20:34 33.837113 -118.432246 219 2144ft 109kts
11-Jan-18 20:35 33.806417 -118.436889 186 2701ft 114kts
11-Jan-18 20:36 33.775305 -118.444913 198 3399ft 115kts
11-Jan-18 20:37 33.750938 -118.463462 280 4007ft 128kts
11-Jan-18 20:38 33.785819 -118.464935 18 4007ft 155kts
11-Jan-18 20:39 33.826090 -118.457711 354 3991ft 146kts
11-Jan-18 20:40 33.866744 -118.457499 359 3989ft 145kts
11-Jan-18 20:41 33.906725 -118.457064 359 3989ft 145kts
11-Jan-18 20:42 33.947071 -118.456893 359 3989ft 145kts
11-Jan-18 20:43 33.987471 -118.456712 359 3988ft 145kts
11-Jan-18 20:44 34.024839 -118.471154 341 4240ft 126kts
11-Jan-18 20:45 34.054420 -118.483639 334 4946ft 111kts
11-Jan-18 20:46 34.083340 -118.496392 342 5543ft 111kts
11-Jan-18 20:47 34.111969 -118.507814 341 4917ft 109kts
11-Jan-18 20:48 34.144616 -118.521037 342 4989ft 137kts
11-Jan-18 20:49 34.182493 -118.536305 342 4985ft 147kts
11-Jan-18 20:50 34.221654 -118.552075 342 4983ft 149kts
11-Jan-18 20:51 34.260977 -118.567900 342 4982ft 149kts
11-Jan-18 20:52 34.300300 -118.583671 342 4982ft 149kts
11-Jan-18 20:53 34.339671 -118.599375 342 4983ft 149kts
11-Jan-18 20:54 34.379108 -118.615022 342 4983ft 149kts
11-Jan-18 20:55 34.418222 -118.630454 342 5002ft 148kts
11-Jan-18 20:56 34.457504 -118.645866 342 5002ft 149kts
11-Jan-18 20:57 34.485546 -118.627525 79 5003ft 155kts
11-Jan-18 20:58 34.489624 -118.576448 81 5001ft 151kts
11-Jan-18 20:59 34.464908 -118.537879 141 5002ft 157kts
11-Jan-18 21:00 34.429622 -118.512285 171 5000ft 136kts
11-Jan-18 21:01 34.392462 -118.507851 175 4840ft 120kts
11-Jan-18 21:02 34.359971 -118.504666 175 4168ft 117kts
11-Jan-18 21:03 34.327961 -118.501608 175 3446ft 114kts
11-Jan-18 21:04 34.296753 -118.498637 175 2723ft 111kts
11-Jan-18 21:05 34.266906 -118.495798 175 2043ft 96kts
11-Jan-18 21:06 34.241559 -118.493384 175 1455ft 91kts
11-Jan-18 21:07 34.216411 -118.490991 174 1050ft 101kts
11-Jan-18 21:08 34.185412 -118.486205 139 1721ft 111kts
11-Jan-18 21:09 34.157473 -118.471660 168 2323ft 114kts
11-Jan-18 21:10 34.125840 -118.464947 166 2925ft 117kts
11-Jan-18 21:11 34.093979 -118.456142 167 3521ft 119kts
11-Jan-18 21:12 34.060622 -118.455936 180 4112ft 121kts
11-Jan-18 21:13 34.026338 -118.456380 180 4602ft 131kts
11-Jan-18 21:14 34.006733 -118.480855 307 4608ft 134kts
11-Jan-18 21:15 34.028073 -118.517806 311 4609ft 136kts
11-Jan-18 21:16 34.052567 -118.552582 311 4609ft 136kts
11-Jan-18 21:17 34.075338 -118.584911 311 4011ft 122kts
11-Jan-18 21:18 34.097318 -118.616048 311 4010ft 122kts
11-Jan-18 21:19 34.119260 -118.647162 311 4010ft 122kts
11-Jan-18 21:20 34.141302 -118.678395 311 4010ft 122kts
11-Jan-18 21:21 34.163324 -118.709443 311 4017ft 121kts
11-Jan-18 21:22 34.188092 -118.733585 13 3998ft 121kts
11-Jan-18 21:23 34.201471 -118.698686 87 3979ft 130kts
11-Jan-18 21:24 34.201276 -118.655448 88 3419ft 126kts
11-Jan-18 21:25 34.200861 -118.612939 88 3395ft 126kts
11-Jan-18 21:26 34.200416 -118.572970 89 2614ft 103kts
11-Jan-18 21:27 34.200023 -118.538417 90 1819ft 102kts
11-Jan-18 21:28 34.203448 -118.505856 34 1494ft 101kts
11-Jan-18 21:29 34.226800 -118.506662 351 1491ft 82kts
11-Jan-18 21:30 34.241910 -118.495601 112 1226ft 81kts
11-Jan-18 21:31 34.221947 -118.491526 174 1003ft 80kts
11-Jan-18 21:32 34.205925 -118.490053 182 805ft 23kts
11-Jan-18 21:33 34.204229 -118.490811 291 805ft 1kts
11-Jan-18 21:34 34.205371 -118.491970 86 805ft 0kts
11-Jan-18 21:35 34.205371 -118.491970 86 805ft 0kts
11-Jan-18 21:36 34.205371 -118.491970 86 805ft 0kts
11-Jan-18 21:37 34.205371 -118.491970 86 805ft 0kts
11-Jan-18 21:38 34.205371 -118.491970 86 805ft 0kts
11-Jan-18 21:39 34.205371 -118.491970 86 805ft 0kts
11-Jan-18 21:40 34.205371 -118.491970 86 805ft 0kts
11-Jan-18 21:41 34.205371 -118.491970 86 805ft 0kts
11-Jan-18 21:42 34.205371 -118.491970 86 805ft 0kts
11-Jan-18 21:43 34.205371 -118.491970 86 805ft 0kts
11-Jan-18 21:44 34.205371 -118.491970 86 805ft 0kts
11-Jan-18 21:45 34.205371 -118.491970 86 805ft 0kts
11-Jan-18 21:46 34.205371 -118.491970 86 805ft 0kts
11-Jan-18 21:47 34.205371 -118.491970 86 805ft 0kts

Navigation Log

Ident Type
Flight plan parsing failed, navigation log unavailable